createdAt,value
2023-03-22T00:00:00.313Z,100647.44
2023-03-22T00:02:27.624Z,100643.22
2023-03-22T00:04:54.596Z,100634.25
2023-03-22T00:07:21.696Z,100635.25
2023-03-22T00:09:48.598Z,100631.69
2023-03-22T00:12:15.509Z,100640.75
2023-03-22T00:14:42.894Z,100629.19
2023-03-22T00:17:09.784Z,100625.00
2023-03-22T00:19:37.402Z,100625.00
2023-03-22T00:22:06.285Z,100618.63
2023-03-22T00:24:33.387Z,100616.16
2023-03-22T00:27:00.974Z,100615.50
2023-03-22T00:29:27.975Z,100612.25
2023-03-22T00:31:56.087Z,100612.63
2023-03-22T00:34:23.236Z,100606.50
2023-03-22T00:36:51.864Z,100599.28
2023-03-22T00:39:18.806Z,100596.59
2023-03-22T00:41:45.970Z,100596.81
2023-03-22T00:44:12.791Z,100594.53
2023-03-22T00:46:39.636Z,100587.41
2023-03-22T00:49:06.473Z,100577.56
2023-03-22T00:51:33.360Z,100573.38
2023-03-22T00:54:00.448Z,100574.34
2023-03-22T00:56:28.704Z,100565.53
2023-03-22T00:59:01.120Z,100569.50
2023-03-22T01:01:29.058Z,100566.59
2023-03-22T01:03:56.178Z,100562.41
2023-03-22T01:06:23.023Z,100567.97
2023-03-22T01:08:50.992Z,100564.53
2023-03-22T01:11:18.451Z,100555.69
2023-03-22T01:13:45.631Z,100552.44
2023-03-22T01:16:12.676Z,100551.41
2023-03-22T01:18:40.744Z,100546.84
2023-03-22T01:21:09.025Z,100539.63
2023-03-22T01:23:36.397Z,100540.63
2023-03-22T01:26:05.628Z,100537.03
2023-03-22T01:28:33.278Z,100527.44
2023-03-22T01:31:04.240Z,100514.72
2023-03-22T01:33:31.742Z,100508.59
2023-03-22T01:35:59.364Z,100500.72
2023-03-22T01:38:27.249Z,100499.19
2023-03-22T01:40:58.077Z,100491.78
2023-03-22T01:43:26.371Z,100487.78
2023-03-22T01:45:55.097Z,100487.59
2023-03-22T01:48:45.992Z,100480.25
2023-03-22T01:51:25.306Z,100472.72
2023-03-22T01:54:30.495Z,100467.66
2023-03-22T01:57:00.501Z,100463.25
2023-03-22T01:59:40.108Z,100456.78
2023-03-22T02:02:19.310Z,100444.47
2023-03-22T02:05:07.242Z,100438.66
2023-03-22T02:07:54.198Z,100433.25
2023-03-22T02:10:27.388Z,100440.38
2023-03-22T02:13:38.960Z,100435.19
2023-03-22T02:16:34.336Z,100433.13
2023-03-22T02:20:07.929Z,100419.44
2023-03-22T02:23:12.088Z,100422.16
2023-03-22T02:25:57.262Z,100415.75
2023-03-22T02:28:42.951Z,100412.75
2023-03-22T02:32:11.514Z,100411.44
2023-03-22T02:35:41.821Z,100425.22
2023-03-22T02:39:01.197Z,100416.16
2023-03-22T02:41:52.246Z,100410.97
2023-03-22T02:45:06.034Z,100416.16
2023-03-22T02:48:15.334Z,100413.56
2023-03-22T02:50:59.369Z,100417.91
2023-03-22T02:53:44.464Z,100405.16
2023-03-22T02:56:19.177Z,100408.59
2023-03-22T02:58:53.443Z,100412.03
2023-03-22T03:01:48.113Z,100397.56
2023-03-22T03:04:35.459Z,100393.91
2023-03-22T03:07:09.561Z,100389.38
2023-03-22T03:09:42.924Z,100384.97
2023-03-22T03:12:21.366Z,100390.25
2023-03-22T03:14:48.806Z,100391.75
2023-03-22T03:17:23.554Z,100384.38
2023-03-22T03:20:08.280Z,100386.13
2023-03-22T03:23:24.502Z,100382.44
2023-03-22T03:26:10.151Z,100384.38
2023-03-22T03:28:49.821Z,100379.22
2023-03-22T03:31:46.853Z,100378.25
2023-03-22T03:34:19.921Z,100372.75
2023-03-22T03:36:58.811Z,100373.59
2023-03-22T03:39:30.948Z,100376.28
2023-03-22T03:42:00.999Z,100373.59
2023-03-22T03:44:31.563Z,100372.63
2023-03-22T03:46:59.752Z,100377.03
2023-03-22T03:49:27.218Z,100380.72
2023-03-22T03:51:56.119Z,100373.59
2023-03-22T03:54:24.246Z,100383.75
2023-03-22T03:56:51.233Z,100377.50
2023-03-22T03:59:18.994Z,100375.88
2023-03-22T04:01:52.535Z,100392.16
2023-03-22T04:04:29.637Z,100385.19
2023-03-22T04:07:06.737Z,100383.59
2023-03-22T04:09:38.959Z,100396.31
2023-03-22T04:12:16.956Z,100382.06
2023-03-22T04:14:55.907Z,100376.03
2023-03-22T04:17:29.240Z,100374.53
2023-03-22T04:19:56.637Z,100370.25
2023-03-22T04:22:26.276Z,100368.75
2023-03-22T04:24:53.172Z,100367.22
2023-03-22T04:27:22.610Z,100369.94
2023-03-22T04:30:19.640Z,100362.09
2023-03-22T04:33:08.620Z,100360.34
2023-03-22T04:36:10.616Z,100358.63
2023-03-22T04:38:51.801Z,100356.91
2023-03-22T04:41:22.112Z,100358.84
2023-03-22T04:43:51.884Z,100359.06
2023-03-22T04:46:21.291Z,100353.03
2023-03-22T04:48:55.501Z,100352.19
2023-03-22T04:51:23.669Z,100346.69
2023-03-22T04:54:15.630Z,100348.50
2023-03-22T04:56:44.157Z,100347.53
2023-03-22T04:59:12.160Z,100348.28
2023-03-22T05:01:40.785Z,100349.28
2023-03-22T05:04:13.829Z,100351.97
2023-03-22T05:06:41.999Z,100343.75
2023-03-22T05:09:16.368Z,100353.69
2023-03-22T05:11:43.636Z,100344.63
2023-03-22T05:14:27.645Z,100342.56
2023-03-22T05:16:54.639Z,100345.03
2023-03-22T05:19:24.427Z,100329.72
2023-03-22T05:21:58.311Z,100343.97
2023-03-22T05:24:37.077Z,100333.06
2023-03-22T05:27:04.340Z,100341.25
2023-03-22T05:29:36.934Z,100340.50
2023-03-22T05:32:12.235Z,100335.13
2023-03-22T05:34:41.872Z,100334.38
2023-03-22T05:37:22.431Z,100331.69
2023-03-22T05:39:54.811Z,100345.28
2023-03-22T05:42:27.027Z,100333.59
2023-03-22T05:44:53.871Z,100344.38
2023-03-22T05:47:22.125Z,100339.00
2023-03-22T05:49:57.442Z,100335.56
2023-03-22T05:52:25.517Z,100334.59
2023-03-22T05:55:19.974Z,100339.97
2023-03-22T05:57:51.504Z,100327.34
2023-03-22T06:00:20.003Z,100330.16
2023-03-22T06:03:06.832Z,100332.09
2023-03-22T06:05:39.102Z,100346.78
2023-03-22T06:08:06.751Z,100343.00
2023-03-22T06:10:33.675Z,100336.44
2023-03-22T06:13:00.955Z,100327.25
2023-03-22T06:15:31.725Z,100338.78
2023-03-22T06:18:07.820Z,100332.28
2023-03-22T06:20:40.298Z,100319.59
2023-03-22T06:23:13.737Z,100328.53
2023-03-22T06:25:42.162Z,100326.78
2023-03-22T06:28:09.323Z,100319.59
2023-03-22T06:30:38.699Z,100323.66
2023-03-22T06:33:20.838Z,100330.31
2023-03-22T06:35:53.684Z,100325.41
2023-03-22T06:38:30.731Z,100335.03
2023-03-22T06:40:57.786Z,100322.03
2023-03-22T06:43:24.716Z,100333.25
2023-03-22T06:45:57.561Z,100322.88
2023-03-22T06:48:31.196Z,100320.91
2023-03-22T06:51:05.794Z,100329.75
2023-03-22T06:53:35.518Z,100340.53
2023-03-22T06:56:04.787Z,100333.19
2023-03-22T06:58:41.047Z,100325.81
2023-03-22T07:01:07.973Z,100329.03
2023-03-22T07:03:36.441Z,100343.06
2023-03-22T07:06:09.311Z,100331.78
2023-03-22T07:08:39.950Z,100336.50
2023-03-22T07:11:08.690Z,100327.59
2023-03-22T07:13:36.964Z,100330.41
2023-03-22T07:16:10.236Z,100320.13
2023-03-22T07:18:55.963Z,100323.56
2023-03-22T07:21:23.083Z,100322.72
2023-03-22T07:23:55.434Z,100333.13
2023-03-22T07:26:26.335Z,100332.63
2023-03-22T07:28:57.915Z,100326.50
2023-03-22T07:31:29.238Z,100334.72
2023-03-22T07:34:01.554Z,100334.72
2023-03-22T07:36:32.870Z,100341.81
2023-03-22T07:38:59.835Z,100344.41
2023-03-22T07:41:34.062Z,100335.09
2023-03-22T07:44:19.261Z,100330.94
2023-03-22T07:46:58.808Z,100335.00
2023-03-22T07:49:31.958Z,100338.19
2023-03-22T07:52:06.689Z,100333.19
2023-03-22T07:54:34.672Z,100329.38
2023-03-22T07:57:04.005Z,100341.53
2023-03-22T07:59:34.575Z,100351.00
2023-03-22T08:02:02.356Z,100338.84
2023-03-22T08:04:38.894Z,100342.94
2023-03-22T08:07:15.695Z,100345.75
2023-03-22T08:09:42.883Z,100336.41
2023-03-22T08:12:10.990Z,100351.50
2023-03-22T08:14:39.143Z,100331.50
2023-03-22T08:17:12.736Z,100338.72
2023-03-22T08:19:40.398Z,100328.81
2023-03-22T08:22:13.419Z,100332.00
2023-03-22T08:25:10.191Z,100336.91
2023-03-22T08:27:39.457Z,100346.13
2023-03-22T08:30:07.528Z,100333.94
2023-03-22T08:32:34.497Z,100338.84
2023-03-22T08:35:02.262Z,100335.06
2023-03-22T08:37:29.618Z,100331.72
2023-03-22T08:39:56.769Z,100345.94
2023-03-22T08:42:23.594Z,100341.25
2023-03-22T08:44:52.057Z,100330.91
2023-03-22T08:47:21.178Z,100339.41
2023-03-22T08:49:52.141Z,100340.75
2023-03-22T08:52:24.293Z,100330.66
2023-03-22T08:55:05.397Z,100315.88
2023-03-22T08:58:04.739Z,100320.03
2023-03-22T09:00:49.929Z,100317.84
2023-03-22T09:03:25.310Z,100322.41
2023-03-22T09:05:52.998Z,100330.41
2023-03-22T09:08:20.523Z,100316.34
2023-03-22T09:10:53.008Z,100324.22
2023-03-22T09:13:22.597Z,100311.47
2023-03-22T09:15:54.754Z,100328.53
2023-03-22T09:18:25.335Z,100310.75
2023-03-22T09:20:54.005Z,100312.75
2023-03-22T09:23:25.442Z,100325.06
2023-03-22T09:25:53.069Z,100306.53
2023-03-22T09:28:24.335Z,100317.38
2023-03-22T09:30:53.223Z,100306.53
2023-03-22T09:33:20.756Z,100311.69
2023-03-22T09:35:50.744Z,100296.38
2023-03-22T09:38:18.016Z,100302.03
2023-03-22T09:41:00.746Z,100331.66
2023-03-22T09:43:38.485Z,100327.88
2023-03-22T09:46:17.586Z,100296.06
2023-03-22T09:48:49.504Z,100312.44
2023-03-22T09:51:44.551Z,100307.84
2023-03-22T09:54:15.972Z,100304.44
2023-03-22T09:56:51.437Z,100311.81
2023-03-22T09:59:32.542Z,100302.69
2023-03-22T10:02:05.015Z,100291.00
2023-03-22T10:04:59.651Z,100299.72
2023-03-22T10:07:53.506Z,100295.28
2023-03-22T10:10:24.254Z,100309.00
2023-03-22T10:13:13.821Z,100299.25
2023-03-22T10:15:49.136Z,100308.66
2023-03-22T10:18:39.216Z,100296.09
2023-03-22T10:21:12.721Z,100309.50
2023-03-22T10:24:05.281Z,100313.59
2023-03-22T10:26:45.002Z,100309.69
2023-03-22T10:29:39.877Z,100297.66
2023-03-22T10:32:19.658Z,100310.13
2023-03-22T10:34:47.487Z,100320.47
2023-03-22T10:37:27.014Z,100299.75
2023-03-22T10:40:02.560Z,100316.00
2023-03-22T10:42:31.528Z,100306.91
2023-03-22T10:45:04.318Z,100331.72
2023-03-22T10:47:46.559Z,100316.50
2023-03-22T10:50:28.556Z,100316.47
2023-03-22T10:53:04.052Z,100314.28
2023-03-22T10:55:30.886Z,100326.16
2023-03-22T10:58:14.899Z,100319.91
2023-03-22T11:00:53.826Z,100322.72
2023-03-22T11:03:36.482Z,100326.63
2023-03-22T11:06:13.303Z,100329.69
2023-03-22T11:08:52.918Z,100327.97
2023-03-22T11:11:30.277Z,100321.09
2023-03-22T11:14:14.084Z,100316.16
2023-03-22T11:16:47.504Z,100323.53
2023-03-22T11:19:24.225Z,100306.59
2023-03-22T11:21:52.782Z,100306.59
2023-03-22T11:24:21.574Z,100308.53
2023-03-22T11:27:18.288Z,100316.16
2023-03-22T11:29:57.242Z,100312.50
2023-03-22T11:32:31.222Z,100310.31
2023-03-22T11:35:31.278Z,100313.75
2023-03-22T11:37:59.386Z,100306.38
2023-03-22T11:40:36.210Z,100312.00
2023-03-22T11:43:23.257Z,100311.16
2023-03-22T11:45:58.687Z,100308.97
2023-03-22T11:48:31.652Z,100310.06
2023-03-22T11:51:37.462Z,100309.63
2023-03-22T11:54:13.232Z,100301.28
2023-03-22T11:56:45.299Z,100305.69
2023-03-22T11:59:22.978Z,100309.50
2023-03-22T12:02:18.848Z,100314.28
2023-03-22T12:04:48.474Z,100282.84
2023-03-22T12:07:24.463Z,100291.91
2023-03-22T12:10:03.443Z,100295.13
2023-03-22T12:12:39.504Z,100302.88
2023-03-22T12:15:26.928Z,100297.19
2023-03-22T12:18:00.301Z,100276.16
2023-03-22T12:20:36.114Z,100278.63
2023-03-22T12:23:13.162Z,100294.50
2023-03-22T12:25:51.328Z,100290.53
2023-03-22T12:28:29.951Z,100293.75
2023-03-22T12:30:59.059Z,100280.81
2023-03-22T12:33:45.354Z,100288.94
2023-03-22T12:36:19.361Z,100288.94
2023-03-22T12:38:57.692Z,100289.91
2023-03-22T12:41:53.915Z,100285.22
2023-03-22T12:44:39.236Z,100288.41
2023-03-22T12:47:23.798Z,100297.25
2023-03-22T12:50:05.334Z,100294.31
2023-03-22T12:52:46.335Z,100283.50
2023-03-22T12:55:27.794Z,100289.16
2023-03-22T12:57:55.702Z,100296.41
2023-03-22T13:00:38.829Z,100286.44
2023-03-22T13:03:18.200Z,100290.00
2023-03-22T13:05:49.136Z,100291.84
2023-03-22T13:08:21.707Z,100294.31
2023-03-22T13:11:04.449Z,100293.06
2023-03-22T13:13:43.214Z,100284.53
2023-03-22T13:16:11.167Z,100276.31
2023-03-22T13:18:38.289Z,100275.22
2023-03-22T13:21:09.053Z,100274.94
2023-03-22T13:23:35.930Z,100282.06
2023-03-22T13:26:06.161Z,100268.44
2023-03-22T13:28:37.316Z,100279.97
2023-03-22T13:31:05.755Z,100284.41
2023-03-22T13:33:37.367Z,100280.72
2023-03-22T13:36:25.641Z,100284.41
2023-03-22T13:39:00.018Z,100290.78
2023-03-22T13:41:31.202Z,100287.25
2023-03-22T13:44:03.598Z,100278.38
2023-03-22T13:46:36.916Z,100279.25
2023-03-22T13:49:04.193Z,100288.97
2023-03-22T13:51:33.348Z,100280.72
2023-03-22T13:54:16.510Z,100287.59
2023-03-22T13:57:01.639Z,100273.94
2023-03-22T13:59:30.950Z,100278.97
2023-03-22T14:02:15.608Z,100275.25
2023-03-22T14:05:01.923Z,100286.22
2023-03-22T14:07:44.393Z,100268.88
2023-03-22T14:10:43.699Z,100268.59
2023-03-22T14:13:35.160Z,100275.00
2023-03-22T14:17:05.747Z,100263.19
2023-03-22T14:19:35.902Z,100270.31
